Time;durP1;ratioP1;P1;durP2;ratioP2;P2;SDS_P1;SDS_P2;PMS_P1;PMS_P2;Temp;Humidity;BMP_temperature;BMP_pressure;BME280_temperature;BME280_humidity;BME280_pressure;Samples;Min_cycle;Max_cycle;Signal;HPM_P1;HPM_P2
2023/12/29 00:00:31;;;;;;;0.85;0.63;;;9.20;1.00;;;;;;5052289;28;20037;-80
2023/12/29 00:02:57;;;;;;;0.40;0.32;;;9.30;1.00;;;;;;5067657;28;20051;-80
2023/12/29 00:05:23;;;;;;;1.55;1.02;;;9.30;1.00;;;;;;5061745;28;20036;-79
2023/12/29 00:07:49;;;;;;;0.10;0.10;;;9.30;1.00;;;;;;5067002;28;20029;-80
2023/12/29 00:10:15;;;;;;;0.40;0.40;;;9.30;1.00;;;;;;5067779;28;20052;-80
2023/12/29 00:12:42;;;;;;;0.13;0.13;;;9.20;1.00;;;;;;5069027;28;20037;-80
2023/12/29 00:15:08;;;;;;;0.30;0.30;;;9.20;1.00;;;;;;5067768;28;20056;-80
2023/12/29 00:17:37;;;;;;;0.65;0.65;;;9.10;1.00;;;;;;5068152;28;20135;-80
2023/12/29 00:20:09;;;;;;;1.35;0.82;;;9.10;1.00;;;;;;5062761;28;20043;-81
2023/12/29 00:22:36;;;;;;;0.20;0.20;;;9.20;1.00;;;;;;5059192;28;20048;-81
2023/12/29 00:25:02;;;;;;;0.52;0.50;;;9.20;1.00;;;;;;5065960;28;20366;-81
2023/12/29 00:27:28;;;;;;;0.30;0.30;;;9.20;1.00;;;;;;5064525;28;20385;-81
2023/12/29 00:29:55;;;;;;;0.10;0.10;;;9.10;1.00;;;;;;5083723;28;20059;-82
2023/12/29 00:32:21;;;;;;;0.25;0.25;;;9.00;1.00;;;;;;5064181;28;20053;-80
2023/12/29 00:34:47;;;;;;;0.93;0.52;;;9.00;1.00;;;;;;5069652;28;20032;-81
2023/12/29 00:37:13;;;;;;;0.68;0.68;;;8.90;1.00;;;;;;5065731;28;20103;-81
2023/12/29 00:39:40;;;;;;;0.10;0.10;;;8.80;1.00;;;;;;5066897;28;20044;-81
2023/12/29 00:42:06;;;;;;;1.70;1.02;;;8.80;1.00;;;;;;5063489;28;20053;-81
2023/12/29 00:44:33;;;;;;;0.70;0.50;;;8.90;1.00;;;;;;5051485;28;20433;-81
2023/12/29 00:47:00;;;;;;;0.10;0.10;;;8.90;1.00;;;;;;5051132;28;20537;-80
2023/12/29 00:49:27;;;;;;;0.40;0.40;;;8.80;1.00;;;;;;5063848;28;20036;-80
2023/12/29 00:51:53;;;;;;;0.30;0.30;;;8.90;1.00;;;;;;5067305;28;20048;-80
2023/12/29 00:54:19;;;;;;;3.13;0.30;;;9.00;1.00;;;;;;5068467;28;20051;-80
2023/12/29 00:56:49;;;;;;;1.88;1.00;;;9.10;1.00;;;;;;5066087;28;20029;-80
2023/12/29 00:59:16;;;;;;;0.20;0.20;;;9.20;1.00;;;;;;5083453;28;20405;-82
2023/12/29 01:01:44;;;;;;;0.13;0.13;;;9.20;1.00;;;;;;5066674;28;20033;-80
2023/12/29 01:04:10;;;;;;;0.10;0.10;;;9.20;1.00;;;;;;5069206;28;20041;-80
2023/12/29 01:06:36;;;;;;;0.50;0.50;;;9.20;1.00;;;;;;5053031;28;20044;-80
2023/12/29 01:09:03;;;;;;;0.28;0.28;;;9.20;1.00;;;;;;5050746;28;20071;-80
2023/12/29 01:11:29;;;;;;;0.13;0.13;;;9.10;1.00;;;;;;5066112;28;20040;-81
2023/12/29 01:13:56;;;;;;;0.20;0.20;;;9.10;1.00;;;;;;5069685;28;20040;-81
2023/12/29 01:16:22;;;;;;;0.25;0.25;;;9.20;1.00;;;;;;5066224;28;20492;-80
2023/12/29 01:18:49;;;;;;;0.80;0.80;;;9.20;1.00;;;;;;5067963;28;20045;-81
2023/12/29 01:21:16;;;;;;;0.50;0.50;;;9.20;1.00;;;;;;5070169;28;20059;-80
2023/12/29 01:23:42;;;;;;;0.45;0.40;;;9.10;1.00;;;;;;5073743;28;20040;-80
2023/12/29 01:26:08;;;;;;;0.57;0.57;;;9.00;1.00;;;;;;5071375;28;20021;-80
2023/12/29 01:28:34;;;;;;;0.15;0.15;;;9.00;1.00;;;;;;5057310;28;20052;-81
2023/12/29 01:31:00;;;;;;;0.90;0.90;;;9.00;1.00;;;;;;5072634;28;20052;-81
2023/12/29 01:33:27;;;;;;;1.08;1.00;;;9.00;1.00;;;;;;5072388;28;20033;-80
2023/12/29 01:35:53;;;;;;;0.75;0.63;;;9.00;1.00;;;;;;5066017;28;20033;-81
2023/12/29 01:38:19;;;;;;;2.65;0.88;;;9.10;1.00;;;;;;5073003;28;20036;-80
2023/12/29 01:40:46;;;;;;;1.10;1.00;;;9.10;1.00;;;;;;5070460;28;20028;-80
2023/12/29 01:43:13;;;;;;;1.75;1.00;;;9.10;1.00;;;;;;5071548;28;20051;-81
2023/12/29 01:45:39;;;;;;;1.17;1.10;;;9.10;1.00;;;;;;5055989;28;20048;-81
2023/12/29 01:48:07;;;;;;;1.17;1.02;;;9.20;1.00;;;;;;5073266;28;20029;-80
2023/12/29 01:50:34;;;;;;;0.40;0.40;;;9.10;1.00;;;;;;5073630;28;20032;-80
2023/12/29 01:53:02;;;;;;;0.82;0.75;;;9.10;1.00;;;;;;5055104;28;20041;-82
2023/12/29 01:55:30;;;;;;;0.30;0.30;;;9.10;1.00;;;;;;5072510;28;20393;-80
2023/12/29 01:57:56;;;;;;;0.85;0.85;;;9.00;1.00;;;;;;5054926;28;20052;-81
2023/12/29 02:00:23;;;;;;;0.85;0.68;;;9.00;1.00;;;;;;5072702;28;20044;-81
2023/12/29 02:02:49;;;;;;;1.80;1.33;;;8.90;1.00;;;;;;5072357;28;20037;-81
2023/12/29 02:05:20;;;;;;;0.43;0.43;;;8.90;1.00;;;;;;5073675;28;20033;-81
2023/12/29 02:07:47;;;;;;;0.40;0.40;;;8.90;1.00;;;;;;5066642;28;20032;-80
2023/12/29 02:10:15;;;;;;;0.10;0.10;;;9.00;99.90;;;;;;5067888;28;20055;-80
2023/12/29 02:12:44;;;;;;;0.68;0.68;;;9.00;99.90;;;;;;5070324;28;20033;-81
2023/12/29 02:15:10;;;;;;;1.48;1.17;;;9.00;99.90;;;;;;5065970;28;20081;-79
2023/12/29 02:17:52;;;;;;;0.50;0.45;;;8.90;1.00;;;;;;5072016;28;20378;-80
2023/12/29 02:20:19;;;;;;;1.13;1.02;;;8.80;1.00;;;;;;5071866;28;20044;-80
2023/12/29 02:22:46;;;;;;;0.73;0.73;;;8.90;1.00;;;;;;5068260;28;20040;-82
2023/12/29 02:25:12;;;;;;;0.40;0.32;;;8.90;1.00;;;;;;5080841;28;20937;-79
2023/12/29 02:27:50;;;;;;;0.20;0.20;;;9.00;99.90;;;;;;5052399;28;20040;-80
2023/12/29 02:30:30;;;;;;;0.28;0.28;;;9.00;99.90;;;;;;5069399;28;20037;-80
2023/12/29 02:33:01;;;;;;;1.15;1.05;;;9.00;99.90;;;;;;5070528;28;20386;-81
2023/12/29 02:35:29;;;;;;;0.98;0.68;;;9.00;99.90;;;;;;5062747;28;20040;-81
2023/12/29 02:37:56;;;;;;;0.20;0.20;;;8.90;99.90;;;;;;5069744;28;20044;-81
2023/12/29 02:40:26;;;;;;;2.60;0.60;;;8.80;99.90;;;;;;5059388;28;20517;-81
2023/12/29 02:42:52;;;;;;;0.75;0.52;;;8.90;99.90;;;;;;5066205;28;20454;-80
2023/12/29 02:45:19;;;;;;;0.68;0.68;;;9.00;99.90;;;;;;5068601;28;20064;-79
2023/12/29 02:47:45;;;;;;;0.20;0.20;;;9.10;99.90;;;;;;5045199;28;20465;-79
2023/12/29 02:50:11;;;;;;;0.30;0.30;;;9.00;99.90;;;;;;5057588;28;20047;-81
2023/12/29 02:52:38;;;;;;;0.55;0.52;;;9.00;99.90;;;;;;5070058;28;20040;-79
2023/12/29 02:55:04;;;;;;;1.17;0.88;;;9.10;99.90;;;;;;5070055;28;20040;-80
2023/12/29 02:57:30;;;;;;;0.20;0.20;;;9.10;99.90;;;;;;5065747;28;20035;-80
2023/12/29 02:59:57;;;;;;;0.35;0.30;;;9.10;99.90;;;;;;5059122;28;20378;-80
2023/12/29 03:02:24;;;;;;;0.73;0.57;;;9.10;99.90;;;;;;5064347;28;20043;-81
2023/12/29 03:04:50;;;;;;;0.10;0.10;;;9.10;99.90;;;;;;5070954;28;20040;-80
2023/12/29 03:07:16;;;;;;;0.10;0.10;;;9.00;99.90;;;;;;5055640;28;20064;-81
2023/12/29 03:09:42;;;;;;;2.90;0.47;;;9.10;99.90;;;;;;5070710;28;20036;-80
2023/12/29 03:12:09;;;;;;;0.32;0.32;;;9.00;99.90;;;;;;5070537;28;20043;-81
2023/12/29 03:14:35;;;;;;;0.10;0.10;;;9.10;99.90;;;;;;5070815;28;20039;-81
2023/12/29 03:17:01;;;;;;;0.45;0.45;;;9.20;99.90;;;;;;5069443;28;20029;-80
2023/12/29 03:19:28;;;;;;;0.17;0.17;;;9.10;99.90;;;;;;5069949;28;20040;-80
2023/12/29 03:21:54;;;;;;;0.35;0.32;;;9.20;99.90;;;;;;5057514;28;20055;-81
2023/12/29 03:24:20;;;;;;;1.33;1.05;;;9.20;99.90;;;;;;5066070;28;20330;-80
2023/12/29 03:26:48;;;;;;;0.57;0.57;;;9.20;99.90;;;;;;5071879;28;20039;-80
2023/12/29 03:29:15;;;;;;;0.20;0.20;;;9.10;99.90;;;;;;5053087;28;20044;-80
2023/12/29 03:31:41;;;;;;;0.20;0.20;;;9.10;99.90;;;;;;5054318;28;20044;-80
2023/12/29 03:34:07;;;;;;;0.57;0.43;;;9.10;99.90;;;;;;5069599;28;20040;-81
2023/12/29 03:36:34;;;;;;;0.40;0.40;;;9.20;99.90;;;;;;5068558;28;20044;-78
2023/12/29 03:39:00;;;;;;;1.95;0.93;;;9.20;99.90;;;;;;5071198;28;20021;-80
2023/12/29 03:41:26;;;;;;;1.05;0.43;;;9.20;99.90;;;;;;5061442;28;20044;-81
2023/12/29 03:43:52;;;;;;;0.30;0.30;;;9.20;99.90;;;;;;5060595;28;20029;-81
2023/12/29 03:46:20;;;;;;;0.10;0.10;;;9.20;99.90;;;;;;5060053;28;20029;-81
2023/12/29 03:48:47;;;;;;;0.13;0.13;;;9.10;99.90;;;;;;5072029;28;20039;-81
2023/12/29 03:51:14;;;;;;;1.52;1.33;;;9.10;99.90;;;;;;5068738;28;20116;-81
2023/12/29 03:53:41;;;;;;;0.40;0.40;;;9.10;99.90;;;;;;5071306;28;20458;-81
2023/12/29 03:56:08;;;;;;;0.25;0.25;;;9.10;99.90;;;;;;5068248;28;20032;-81
2023/12/29 03:58:35;;;;;;;0.40;0.40;;;9.20;99.90;;;;;;5069966;28;20052;-80
2023/12/29 04:01:02;;;;;;;0.20;0.20;;;9.10;99.90;;;;;;5069677;28;20028;-81
2023/12/29 04:03:28;;;;;;;0.43;0.43;;;9.20;99.90;;;;;;5086713;28;20040;-81
2023/12/29 04:05:54;;;;;;;0.10;0.10;;;9.20;88.30;;;;;;5067483;28;20040;-81
2023/12/29 04:08:20;;;;;;;0.85;0.50;;;9.20;70.10;;;;;;5060785;28;20032;-81
2023/12/29 04:10:46;;;;;;;0.10;0.10;;;9.20;60.70;;;;;;5068857;28;20047;-80
2023/12/29 04:13:13;;;;;;;0.20;0.20;;;9.30;47.60;;;;;;5069339;28;20024;-81
2023/12/29 04:15:39;;;;;;;0.50;0.50;;;9.30;44.20;;;;;;5064671;28;20025;-81
2023/12/29 04:18:05;;;;;;;0.90;0.40;;;9.30;46.50;;;;;;5063821;28;20048;-80
2023/12/29 04:20:31;;;;;;;0.20;0.20;;;9.30;44.50;;;;;;5052777;28;20055;-80
2023/12/29 04:22:58;;;;;;;0.45;0.45;;;9.30;53.40;;;;;;5069947;28;20045;-80
2023/12/29 04:25:24;;;;;;;1.65;0.57;;;9.30;46.00;;;;;;5067672;28;20051;-81
2023/12/29 04:27:50;;;;;;;0.52;0.52;;;9.30;47.20;;;;;;5070024;28;20036;-81
2023/12/29 04:30:17;;;;;;;0.10;0.10;;;9.20;53.20;;;;;;5065186;28;20067;-81
2023/12/29 04:32:43;;;;;;;0.20;0.20;;;9.20;66.10;;;;;;5086430;28;20063;-80
2023/12/29 04:35:12;;;;;;;1.75;1.17;;;9.10;74.80;;;;;;5065973;28;20468;-80
2023/12/29 04:37:38;;;;;;;0.63;0.63;;;9.10;78.00;;;;;;5068608;28;20055;-79
2023/12/29 04:40:06;;;;;;;0.10;0.10;;;9.10;60.90;;;;;;5067016;28;20036;-80
2023/12/29 04:42:32;;;;;;;0.10;0.10;;;9.10;52.70;;;;;;5064852;28;20032;-80
2023/12/29 04:44:58;;;;;;;0.40;0.40;;;9.10;54.50;;;;;;5063185;28;20154;-81
2023/12/29 04:47:24;;;;;;;0.10;0.10;;;9.00;65.90;;;;;;5066481;28;20055;-80
2023/12/29 04:49:50;;;;;;;0.35;0.35;;;8.90;70.30;;;;;;5052618;28;20398;-81
2023/12/29 04:52:17;;;;;;;0.45;0.45;;;8.80;64.80;;;;;;5068284;28;20041;-81
2023/12/29 04:54:43;;;;;;;0.30;0.30;;;8.90;80.40;;;;;;5068627;28;20047;-82
2023/12/29 04:57:09;;;;;;;0.20;0.20;;;8.80;74.40;;;;;;5073329;28;20029;-81
2023/12/29 04:59:35;;;;;;;0.57;0.57;;;8.80;60.90;;;;;;5070546;28;20041;-80
2023/12/29 05:02:01;;;;;;;0.73;0.73;;;8.90;51.80;;;;;;5083515;28;20377;-81
2023/12/29 05:04:28;;;;;;;0.60;0.52;;;8.90;57.70;;;;;;5078971;28;20029;-80
2023/12/29 05:06:54;;;;;;;1.80;0.38;;;8.90;65.10;;;;;;5073182;28;20025;-81
2023/12/29 05:09:20;;;;;;;0.22;0.22;;;8.80;75.90;;;;;;5072856;28;20036;-81
2023/12/29 05:11:46;;;;;;;0.47;0.47;;;8.80;84.80;;;;;;5056582;28;20048;-81
2023/12/29 05:14:12;;;;;;;0.30;0.20;;;8.80;87.40;;;;;;5071171;28;20346;-80
2023/12/29 05:16:39;;;;;;;0.47;0.30;;;8.80;93.70;;;;;;5070804;28;20465;-80
2023/12/29 05:19:05;;;;;;;0.28;0.28;;;8.80;94.80;;;;;;5071245;28;20393;-79
2023/12/29 05:21:31;;;;;;;0.35;0.35;;;8.90;85.60;;;;;;5061203;28;20405;-80
2023/12/29 05:23:57;;;;;;;0.10;0.10;;;8.90;62.90;;;;;;5072516;28;20040;-80
2023/12/29 05:26:24;;;;;;;0.43;0.43;;;8.90;57.80;;;;;;5069586;28;20079;-80
2023/12/29 05:28:50;;;;;;;0.38;0.30;;;8.90;73.80;;;;;;5055796;28;20044;-79
2023/12/29 05:31:16;;;;;;;1.77;1.35;;;8.80;97.00;;;;;;5067514;28;20469;-80
2023/12/29 05:33:42;;;;;;;0.88;0.88;;;8.80;99.90;;;;;;5042661;28;20479;-80
2023/12/29 05:36:09;;;;;;;4.32;1.73;;;8.90;99.90;;;;;;5067920;28;20037;-80
2023/12/29 05:38:37;;;;;;;0.25;0.25;;;8.90;99.90;;;;;;5072434;28;20037;-81
2023/12/29 05:41:04;;;;;;;2.85;0.88;;;9.00;99.90;;;;;;5071787;28;20040;-81
2023/12/29 05:43:32;;;;;;;0.60;0.60;;;9.00;99.90;;;;;;5072374;28;20060;-80
2023/12/29 05:45:59;;;;;;;0.95;0.95;;;9.00;99.90;;;;;;5074108;28;20051;-80
2023/12/29 05:48:25;;;;;;;0.45;0.45;;;9.00;99.90;;;;;;5074989;28;20037;-79
2023/12/29 05:50:51;;;;;;;0.75;0.40;;;9.00;99.90;;;;;;5069900;28;20041;-79
2023/12/29 05:53:18;;;;;;;0.68;0.60;;;9.00;99.90;;;;;;5069627;28;20056;-79
2023/12/29 05:55:45;;;;;;;2.47;2.10;;;9.00;99.90;;;;;;5073256;28;20020;-80
2023/12/29 05:58:11;;;;;;;1.58;1.30;;;8.80;99.90;;;;;;5071417;28;20045;-81
2023/12/29 06:00:39;;;;;;;2.25;1.63;;;8.80;99.90;;;;;;5070438;28;20051;-80
2023/12/29 06:03:05;;;;;;;2.72;0.98;;;8.70;99.90;;;;;;5065934;28;20052;-80
2023/12/29 06:05:32;;;;;;;1.10;1.00;;;8.70;99.90;;;;;;5060440;28;20037;-80
2023/12/29 06:07:59;;;;;;;0.20;0.20;;;8.70;99.90;;;;;;5070855;28;20033;-80
2023/12/29 06:10:25;;;;;;;0.45;0.45;;;8.80;99.90;;;;;;5072420;28;20036;-79
2023/12/29 06:12:51;;;;;;;0.50;0.30;;;8.80;99.90;;;;;;5064144;28;20037;-80
2023/12/29 06:15:17;;;;;;;1.40;1.30;;;8.80;99.90;;;;;;5059850;28;20044;-80
2023/12/29 06:17:43;;;;;;;1.67;1.27;;;8.70;99.90;;;;;;5071263;28;20041;-80
2023/12/29 06:20:10;;;;;;;0.35;0.35;;;8.70;99.90;;;;;;5067272;28;20044;-80
2023/12/29 06:22:44;;;;;;;0.40;0.40;;;8.80;99.90;;;;;;5064168;28;20041;-80
2023/12/29 06:25:11;;;;;;;0.30;0.30;;;8.80;99.90;;;;;;5068773;28;20047;-80
2023/12/29 06:27:38;;;;;;;1.05;1.02;;;8.80;99.90;;;;;;5055387;28;20041;-80
2023/12/29 06:30:06;;;;;;;0.38;0.32;;;8.80;99.90;;;;;;5068045;28;20045;-79
2023/12/29 06:32:33;;;;;;;1.02;0.65;;;8.90;99.90;;;;;;5066944;28;20036;-79
2023/12/29 06:34:59;;;;;;;0.85;0.85;;;8.90;99.90;;;;;;5072436;28;20032;-81
2023/12/29 06:37:25;;;;;;;0.20;0.20;;;9.00;99.90;;;;;;5071784;28;20040;-79
2023/12/29 06:39:52;;;;;;;0.60;0.60;;;9.10;99.90;;;;;;5072525;28;20035;-80
2023/12/29 06:42:18;;;;;;;0.10;0.10;;;9.20;99.90;;;;;;5070381;28;20482;-78
2023/12/29 06:44:44;;;;;;;0.10;0.10;;;9.20;99.90;;;;;;5063134;28;20039;-79
2023/12/29 06:47:11;;;;;;;0.50;0.50;;;9.20;99.90;;;;;;5061875;28;20052;-78
2023/12/29 06:49:37;;;;;;;0.20;0.20;;;9.30;99.90;;;;;;5059712;28;20044;-80
2023/12/29 06:52:04;;;;;;;0.20;0.20;;;9.40;96.40;;;;;;5068023;28;20049;-80
2023/12/29 06:54:30;;;;;;;0.10;0.10;;;9.40;97.50;;;;;;5068129;28;20045;-82
2023/12/29 06:56:56;;;;;;;0.10;0.10;;;9.40;99.90;;;;;;5064770;28;20033;-81
2023/12/29 06:59:23;;;;;;;2.80;0.43;;;9.40;70.90;;;;;;5070649;28;20040;-80
2023/12/29 07:01:49;;;;;;;0.28;0.28;;;9.50;48.80;;;;;;5069173;28;20504;-79
2023/12/29 07:04:15;;;;;;;0.20;0.20;;;9.60;28.00;;;;;;5064547;28;20028;-79
2023/12/29 07:06:42;;;;;;;0.10;0.10;;;9.60;4.10;;;;;;5070941;28;20393;-80
2023/12/29 07:09:09;;;;;;;0.10;0.10;;;9.60;2.10;;;;;;5082203;28;20040;-81
2023/12/29 07:11:36;;;;;;;1.33;0.40;;;9.60;10.60;;;;;;5062735;28;20492;-80
2023/12/29 07:14:02;;;;;;;0.20;0.20;;;9.60;1.00;;;;;;5068705;28;20134;-80
2023/12/29 07:16:29;;;;;;;0.40;0.40;;;9.60;1.00;;;;;;5047959;28;20051;-79
2023/12/29 07:18:55;;;;;;;0.35;0.30;;;9.60;1.00;;;;;;5069973;28;20466;-80
2023/12/29 07:21:21;;;;;;;0.60;0.38;;;9.60;1.00;;;;;;5069349;28;20048;-79
2023/12/29 07:23:47;;;;;;;0.20;0.20;;;9.50;1.00;;;;;;5071411;28;20465;-80
2023/12/29 07:26:14;;;;;;;0.10;0.10;;;9.60;1.00;;;;;;5069062;28;20469;-78
2023/12/29 07:28:40;;;;;;;0.52;0.52;;;9.50;1.00;;;;;;5059808;28;20032;-79
2023/12/29 07:31:06;;;;;;;0.25;0.25;;;9.60;1.00;;;;;;5066256;28;20052;-79
2023/12/29 07:33:33;;;;;;;0.28;0.28;;;9.60;1.00;;;;;;5067108;28;20051;-80
2023/12/29 07:36:00;;;;;;;0.45;0.45;;;9.60;1.00;;;;;;5064946;28;20036;-79
2023/12/29 07:38:26;;;;;;;0.10;0.10;;;9.70;1.00;;;;;;5065372;28;20037;-76
2023/12/29 07:40:52;;;;;;;0.22;0.20;;;9.70;1.00;;;;;;5056186;28;20036;-77
2023/12/29 07:43:19;;;;;;;0.10;0.10;;;9.70;1.00;;;;;;5069148;28;20040;-77
2023/12/29 07:45:45;;;;;;;0.20;0.20;;;9.70;1.00;;;;;;5068421;28;20041;-76
2023/12/29 07:48:11;;;;;;;0.15;0.15;;;9.70;1.00;;;;;;5066004;28;20028;-77
2023/12/29 07:50:37;;;;;;;0.28;0.28;;;9.70;1.00;;;;;;5068399;28;20039;-78
2023/12/29 07:53:05;;;;;;;0.10;0.10;;;9.70;1.00;;;;;;5056158;28;20059;-77
2023/12/29 07:55:32;;;;;;;0.10;0.10;;;9.70;1.00;;;;;;5071537;28;20029;-78
2023/12/29 07:57:58;;;;;;;0.22;0.22;;;9.70;1.00;;;;;;5067503;28;20381;-80
2023/12/29 08:00:24;;;;;;;0.52;0.52;;;9.70;1.00;;;;;;5070454;28;20041;-80
2023/12/29 08:02:51;;;;;;;0.10;0.10;;;9.70;1.00;;;;;;5058615;28;20051;-77
2023/12/29 08:05:18;;;;;;;0.17;0.17;;;9.70;1.00;;;;;;5064926;28;20029;-78
2023/12/29 08:07:44;;;;;;;1.30;0.80;;;9.70;1.00;;;;;;5066164;28;20389;-78
2023/12/29 08:10:10;;;;;;;0.40;0.40;;;9.80;1.00;;;;;;5059010;28;20044;-81
2023/12/29 08:12:36;;;;;;;0.30;0.30;;;9.80;1.00;;;;;;5067282;28;20045;-80
2023/12/29 08:15:03;;;;;;;0.30;0.30;;;9.70;1.00;;;;;;5068159;28;20039;-79
2023/12/29 08:17:31;;;;;;;1.35;1.25;;;9.90;1.00;;;;;;5067504;28;20028;-79
2023/12/29 08:19:57;;;;;;;1.38;0.70;;;10.00;99.90;;;;;;5049626;28;20059;-80
2023/12/29 08:22:23;;;;;;;2.08;1.38;;;10.00;99.90;;;;;;5068429;28;20040;-79
2023/12/29 08:24:49;;;;;;;0.30;0.30;;;10.00;1.00;;;;;;5068529;28;20040;-79
2023/12/29 08:27:23;;;;;;;0.10;0.10;;;10.00;1.00;;;;;;5059095;28;20386;-79
2023/12/29 08:29:49;;;;;;;0.40;0.40;;;10.00;99.90;;;;;;5066841;28;20040;-80
2023/12/29 08:32:15;;;;;;;0.30;0.30;;;10.10;99.90;;;;;;5067149;28;20048;-79
2023/12/29 08:34:41;;;;;;;0.20;0.20;;;10.20;99.90;;;;;;5067718;28;20040;-78
2023/12/29 08:37:07;;;;;;;0.10;0.10;;;10.20;99.90;;;;;;5068039;28;20044;-78
2023/12/29 08:39:33;;;;;;;2.20;0.32;;;10.30;99.90;;;;;;5053352;28;20032;-77
2023/12/29 08:42:00;;;;;;;0.20;0.20;;;10.30;99.90;;;;;;5064708;28;20040;-79
2023/12/29 08:44:26;;;;;;;0.20;0.20;;;10.40;99.90;;;;;;5081419;28;20075;-79
2023/12/29 08:46:52;;;;;;;0.30;0.30;;;10.40;99.90;;;;;;5066458;28;20039;-79
2023/12/29 08:49:19;;;;;;;1.15;0.52;;;10.40;99.90;;;;;;5069395;28;20044;-79
2023/12/29 08:51:45;;;;;;;1.60;0.60;;;10.50;99.90;;;;;;5068778;28;20048;-79
2023/12/29 08:54:11;;;;;;;0.20;0.20;;;10.50;99.90;;;;;;5067456;28;20040;-80
2023/12/29 08:56:37;;;;;;;0.10;0.10;;;10.40;99.90;;;;;;5066983;28;20044;-79
2023/12/29 08:59:03;;;;;;;0.90;0.70;;;10.40;99.90;;;;;;5064065;28;20035;-79
2023/12/29 09:01:29;;;;;;;0.30;0.30;;;10.50;99.90;;;;;;5050950;28;20051;-79
2023/12/29 09:03:56;;;;;;;0.20;0.20;;;10.50;99.90;;;;;;5068023;28;20182;-79
2023/12/29 09:06:22;;;;;;;0.35;0.35;;;10.50;99.90;;;;;;5069094;28;20407;-79
2023/12/29 09:08:48;;;;;;;0.25;0.25;;;10.60;99.90;;;;;;5067384;28;20032;-78
2023/12/29 09:11:14;;;;;;;0.65;0.45;;;10.60;99.90;;;;;;5067877;28;20466;-80
2023/12/29 09:13:40;;;;;;;0.40;0.40;;;10.70;99.90;;;;;;5068342;28;20055;-77
2023/12/29 09:16:07;;;;;;;0.85;0.80;;;10.70;99.90;;;;;;5066821;28;20036;-77
2023/12/29 09:18:33;;;;;;;0.10;0.10;;;10.70;99.90;;;;;;5061372;28;20389;-77
2023/12/29 09:21:00;;;;;;;0.30;0.30;;;10.70;99.90;;;;;;5068738;28;20043;-78
2023/12/29 09:23:26;;;;;;;0.45;0.45;;;10.70;99.90;;;;;;5066520;28;20045;-77
2023/12/29 09:25:52;;;;;;;3.60;1.38;;;10.70;1.00;;;;;;5069139;28;20043;-77
2023/12/29 09:28:19;;;;;;;0.50;0.50;;;10.50;1.00;;;;;;5062971;28;20032;-78
2023/12/29 09:30:45;;;;;;;11.98;2.97;;;10.40;1.00;;;;;;5062627;28;20040;-77
2023/12/29 09:33:12;;;;;;;1.85;1.13;;;10.20;26.00;;;;;;5068402;28;20044;-78
2023/12/29 09:35:39;;;;;;;1.65;1.35;;;10.00;72.10;;;;;;5066489;28;20044;-78
2023/12/29 09:38:09;;;;;;;2.30;2.13;;;9.90;99.90;;;;;;5061542;28;20040;-78
2023/12/29 09:40:36;;;;;;;7.15;2.15;;;9.80;99.90;;;;;;5063020;28;20036;-76
2023/12/29 09:43:05;;;;;;;3.47;2.42;;;9.70;99.90;;;;;;5070206;28;20037;-75
2023/12/29 09:45:34;;;;;;;2.20;2.00;;;9.60;99.90;;;;;;5071272;28;20032;-77
2023/12/29 09:48:02;;;;;;;1.02;0.95;;;9.60;99.90;;;;;;5065114;28;20033;-77
2023/12/29 09:50:29;;;;;;;2.33;1.30;;;9.60;99.90;;;;;;5061574;28;20040;-77
2023/12/29 09:52:56;;;;;;;2.97;1.45;;;9.50;99.90;;;;;;5070137;28;20056;-75
2023/12/29 09:55:24;;;;;;;6.30;2.28;;;9.60;99.90;;;;;;5072613;28;20036;-78
2023/12/29 09:57:50;;;;;;;3.17;1.60;;;9.60;99.90;;;;;;5067047;28;20032;-76
2023/12/29 10:00:17;;;;;;;1.83;1.73;;;9.70;99.90;;;;;;5068830;28;20047;-76
2023/12/29 10:02:44;;;;;;;3.10;2.80;;;9.70;99.90;;;;;;5067892;28;20516;-76
2023/12/29 10:05:10;;;;;;;1.65;1.55;;;9.90;99.90;;;;;;5067999;28;20052;-77
2023/12/29 10:07:38;;;;;;;0.52;0.52;;;9.90;99.90;;;;;;5066876;28;20033;-77
2023/12/29 10:10:08;;;;;;;0.50;0.50;;;10.00;99.90;;;;;;5065527;28;20029;-77
2023/12/29 10:12:36;;;;;;;0.10;0.10;;;10.20;26.80;;;;;;5061471;28;20033;-76
2023/12/29 10:15:54;;;;;;;1.95;1.30;;;10.40;1.00;;;;;;5074454;28;20033;-77
2023/12/29 10:18:38;;;;;;;2.15;0.52;;;10.60;1.00;;;;;;5034715;28;20048;-77
2023/12/29 10:21:29;;;;;;;1.05;0.80;;;10.80;99.90;;;;;;5066563;28;20052;-78
2023/12/29 10:24:16;;;;;;;0.20;0.20;;;10.90;99.90;;;;;;5063038;28;20373;-77
2023/12/29 10:26:43;;;;;;;0.10;0.10;;;10.90;99.90;;;;;;5066299;28;20028;-79
2023/12/29 10:29:12;;;;;;;3.90;0.80;;;11.00;99.90;;;;;;5053687;28;20104;-78
2023/12/29 10:31:38;;;;;;;0.10;0.10;;;11.00;99.90;;;;;;5079151;28;20402;-78
2023/12/29 10:34:18;;;;;;;0.10;0.10;;;11.20;99.90;;;;;;5072274;28;20040;-78
2023/12/29 10:36:49;;;;;;;0.10;0.10;;;11.30;99.90;;;;;;5067850;28;20044;-77
2023/12/29 10:39:15;;;;;;;0.10;0.10;;;11.40;99.90;;;;;;5072195;28;20036;-83
2023/12/29 10:41:41;;;;;;;1.50;0.52;;;11.40;99.90;;;;;;5069522;28;20037;-78
2023/12/29 10:44:08;;;;;;;0.20;0.20;;;11.40;99.90;;;;;;5067261;28;20036;-78
2023/12/29 10:46:34;;;;;;;0.22;0.22;;;11.40;99.90;;;;;;5064294;28;20025;-77
2023/12/29 10:49:18;;;;;;;1.45;0.65;;;11.40;99.90;;;;;;5069430;28;20457;-77
2023/12/29 10:51:45;;;;;;;0.30;0.30;;;11.40;94.80;;;;;;5067883;28;20056;-78
2023/12/29 10:54:22;;;;;;;0.40;0.35;;;11.40;99.90;;;;;;5068626;28;20041;-77
2023/12/29 10:57:01;;;;;;;0.20;0.20;;;11.40;99.90;;;;;;5067326;28;20040;-79
2023/12/29 10:59:27;;;;;;;0.20;0.20;;;11.30;99.90;;;;;;5068731;28;20033;-75
2023/12/29 11:01:54;;;;;;;0.40;0.30;;;11.30;99.90;;;;;;5071435;28;20036;-76
2023/12/29 11:04:22;;;;;;;0.10;0.10;;;11.30;99.90;;;;;;5071054;28;20029;-78
2023/12/29 11:06:51;;;;;;;0.10;0.10;;;11.40;95.40;;;;;;5068658;28;20033;-77
2023/12/29 11:09:35;;;;;;;0.10;0.10;;;11.40;94.30;;;;;;5071250;28;20365;-78
2023/12/29 11:12:05;;;;;;;0.10;0.10;;;11.40;84.50;;;;;;5067233;28;20037;-79
2023/12/29 11:14:32;;;;;;;0.70;0.63;;;11.50;54.70;;;;;;5069605;28;20037;-78
2023/12/29 11:17:00;;;;;;;0.30;0.20;;;11.50;43.40;;;;;;5063991;28;20039;-79
2023/12/29 11:19:27;;;;;;;0.40;0.35;;;11.50;22.20;;;;;;5067831;28;20040;-77
2023/12/29 11:21:55;;;;;;;0.10;0.10;;;11.50;27.60;;;;;;5070644;28;20056;-78
2023/12/29 11:24:22;;;;;;;0.20;0.20;;;11.50;22.20;;;;;;5069029;28;20107;-78
2023/12/29 11:26:49;;;;;;;0.30;0.30;;;11.60;27.50;;;;;;5061035;28;20462;-78
2023/12/29 11:29:16;;;;;;;5.10;1.13;;;11.60;1.00;;;;;;5070141;28;20519;-77
2023/12/29 11:31:45;;;;;;;0.80;0.30;;;11.60;4.30;;;;;;5069557;28;20032;-79
2023/12/29 11:34:26;;;;;;;0.10;0.10;;;11.60;11.20;;;;;;5067499;28;20041;-80
2023/12/29 11:36:56;;;;;;;;;;;11.60;1.00;;;;;;5077769;28;20036;-80
2023/12/29 11:39:31;;;;;;;0.13;0.13;;;11.70;13.00;;;;;;5068993;28;20392;-79
2023/12/29 11:42:12;;;;;;;0.22;0.20;;;11.70;7.60;;;;;;5069825;28;20409;-80
2023/12/29 11:44:38;;;;;;;0.10;0.10;;;11.70;25.60;;;;;;5066761;28;20036;-81
2023/12/29 11:47:04;;;;;;;0.10;0.10;;;11.60;16.90;;;;;;5055659;28;20040;-84
2023/12/29 11:50:01;;;;;;;0.28;0.28;;;11.60;25.70;;;;;;5073104;28;20033;-83
2023/12/29 11:52:34;;;;;;;0.10;0.10;;;11.70;25.00;;;;;;5056867;28;20040;-83
2023/12/29 11:55:11;;;;;;;0.10;0.10;;;11.70;31.30;;;;;;5069718;28;20044;-80
2023/12/29 11:57:38;;;;;;;0.40;0.40;;;11.70;35.60;;;;;;5066296;28;20060;-77
2023/12/29 12:00:05;;;;;;;0.40;0.40;;;11.70;32.80;;;;;;5069221;28;20032;-78
2023/12/29 12:02:38;;;;;;;0.10;0.10;;;11.80;18.40;;;;;;5076625;28;20379;-79
2023/12/29 12:05:07;;;;;;;0.20;0.15;;;11.90;8.60;;;;;;5067957;28;20047;-78
2023/12/29 12:07:33;;;;;;;0.20;0.20;;;11.90;1.00;;;;;;5067946;28;20051;-80
2023/12/29 12:10:38;;;;;;;0.10;0.10;;;12.00;1.00;;;;;;5065448;28;20036;-80
2023/12/29 12:13:04;;;;;;;0.30;0.30;;;12.00;1.00;;;;;;5067711;28;20056;-77
2023/12/29 12:15:32;;;;;;;0.20;0.20;;;12.00;1.00;;;;;;5069357;28;20036;-76
2023/12/29 12:18:00;;;;;;;0.10;0.10;;;12.10;1.00;;;;;;5069032;28;20025;-74
2023/12/29 12:20:29;;;;;;;0.30;0.30;;;12.00;1.00;;;;;;5062010;28;20052;-76
2023/12/29 12:23:05;;;;;;;0.10;0.10;;;12.10;1.00;;;;;;5067444;28;20040;-77
2023/12/29 12:25:34;;;;;;;0.13;0.13;;;12.00;1.00;;;;;;5070648;28;20072;-78
2023/12/29 12:28:04;;;;;;;0.15;0.15;;;12.00;1.00;;;;;;5067872;28;20052;-76
2023/12/29 12:30:34;;;;;;;0.40;0.17;;;12.10;1.00;;;;;;5064227;28;20374;-76
2023/12/29 12:33:02;;;;;;;0.10;0.10;;;12.00;1.00;;;;;;5069526;28;20410;-77
2023/12/29 12:35:29;;;;;;;0.10;0.10;;;12.00;1.00;;;;;;5069799;28;20036;-75
2023/12/29 12:38:11;;;;;;;0.10;0.10;;;12.00;1.00;;;;;;5064746;28;20024;-75
2023/12/29 12:40:40;;;;;;;0.13;0.13;;;12.00;1.00;;;;;;5067143;28;20077;-75
2023/12/29 12:43:07;;;;;;;0.10;0.10;;;12.00;1.00;;;;;;5060184;28;20055;-75
2023/12/29 12:45:41;;;;;;;0.98;0.20;;;12.00;1.00;;;;;;5069133;28;20390;-74
2023/12/29 12:48:43;;;;;;;0.10;0.10;;;12.00;1.00;;;;;;5065182;28;20040;-74
2023/12/29 12:51:10;;;;;;;0.17;0.17;;;12.10;1.00;;;;;;5066391;28;20342;-76
2023/12/29 12:53:48;;;;;;;0.20;0.20;;;12.10;1.00;;;;;;5061022;28;20044;-76
2023/12/29 12:56:16;;;;;;;0.10;0.10;;;12.20;1.00;;;;;;5058722;28;20045;-78
2023/12/29 12:58:42;;;;;;;0.10;0.10;;;12.20;1.00;;;;;;5068638;28;20027;-74
2023/12/29 13:01:09;;;;;;;0.20;0.20;;;12.20;1.00;;;;;;5067690;28;20033;-78